sensor_id;sensor_type;location;lat;lon;timestamp;pressure;altitude;pressure_sealevel;temperature;humidity
65754;BME280;52488;47.502;18.940;2023-03-25T00:00:36;97190.69;;;14.89;55.43
65754;BME280;52488;47.502;18.940;2023-03-25T00:01:41;97183.66;;;14.86;55.63
65754;BME280;52488;47.502;18.940;2023-03-25T00:02:49;97182.28;;;14.87;55.65
65754;BME280;52488;47.502;18.940;2023-03-25T00:03:52;97183.59;;;14.84;55.86
65754;BME280;52488;47.502;18.940;2023-03-25T00:04:55;97178.59;;;14.81;56.00
65754;BME280;52488;47.502;18.940;2023-03-25T00:05:58;97189.75;;;14.83;56.07
65754;BME280;52488;47.502;18.940;2023-03-25T00:07:01;97190.38;;;14.81;56.15
65754;BME280;52488;47.502;18.940;2023-03-25T00:08:05;97197.31;;;14.82;56.17
65754;BME280;52488;47.502;18.940;2023-03-25T00:09:07;97202.00;;;14.77;56.26
65754;BME280;52488;47.502;18.940;2023-03-25T00:10:12;97186.25;;;14.82;56.18
65754;BME280;52488;47.502;18.940;2023-03-25T00:11:15;97187.13;;;14.87;56.09
65754;BME280;52488;47.502;18.940;2023-03-25T00:12:18;97191.69;;;14.98;55.80
65754;BME280;52488;47.502;18.940;2023-03-25T00:13:21;97193.97;;;15.03;55.75
65754;BME280;52488;47.502;18.940;2023-03-25T00:14:24;97188.13;;;14.95;56.03
65754;BME280;52488;47.502;18.940;2023-03-25T00:15:27;97183.00;;;14.88;56.26
65754;BME280;52488;47.502;18.940;2023-03-25T00:16:31;97186.41;;;14.86;56.43
65754;BME280;52488;47.502;18.940;2023-03-25T00:17:35;97193.50;;;14.91;56.57
65754;BME280;52488;47.502;18.940;2023-03-25T00:18:38;97188.59;;;15.08;55.97
65754;BME280;52488;47.502;18.940;2023-03-25T00:19:41;97181.63;;;15.07;55.96
65754;BME280;52488;47.502;18.940;2023-03-25T00:20:46;97189.00;;;15.00;56.23
65754;BME280;52488;47.502;18.940;2023-03-25T00:21:52;97189.63;;;14.98;56.37
65754;BME280;52488;47.502;18.940;2023-03-25T00:22:55;97199.28;;;14.97;56.49
65754;BME280;52488;47.502;18.940;2023-03-25T00:23:58;97192.00;;;15.06;56.29
65754;BME280;52488;47.502;18.940;2023-03-25T00:25:01;97200.06;;;15.00;56.50
65754;BME280;52488;47.502;18.940;2023-03-25T00:26:05;97191.13;;;15.01;56.51
65754;BME280;52488;47.502;18.940;2023-03-25T00:27:07;97191.47;;;14.92;56.84
65754;BME280;52488;47.502;18.940;2023-03-25T00:28:11;97194.06;;;14.88;57.04
65754;BME280;52488;47.502;18.940;2023-03-25T00:29:15;97190.47;;;14.83;57.32
65754;BME280;52488;47.502;18.940;2023-03-25T00:30:18;97192.66;;;14.87;57.38
65754;BME280;52488;47.502;18.940;2023-03-25T00:31:22;97194.00;;;14.86;57.54
65754;BME280;52488;47.502;18.940;2023-03-25T00:32:25;97196.69;;;14.84;57.66
65754;BME280;52488;47.502;18.940;2023-03-25T00:33:31;97191.62;;;14.96;57.43
65754;BME280;52488;47.502;18.940;2023-03-25T00:34:35;97195.03;;;14.94;57.43
65754;BME280;52488;47.502;18.940;2023-03-25T00:35:43;97192.16;;;14.92;57.63
65754;BME280;52488;47.502;18.940;2023-03-25T00:36:46;97196.75;;;14.86;57.98
65754;BME280;52488;47.502;18.940;2023-03-25T00:37:50;97194.00;;;14.86;58.02
65754;BME280;52488;47.502;18.940;2023-03-25T00:39:03;97188.94;;;14.80;58.28
65754;BME280;52488;47.502;18.940;2023-03-25T00:40:07;97184.72;;;14.77;58.33
65754;BME280;52488;47.502;18.940;2023-03-25T00:41:17;97195.75;;;14.77;58.49
65754;BME280;52488;47.502;18.940;2023-03-25T00:42:27;97196.59;;;14.82;58.50
65754;BME280;52488;47.502;18.940;2023-03-25T00:43:30;97190.22;;;14.77;58.71
65754;BME280;52488;47.502;18.940;2023-03-25T00:44:32;97201.28;;;14.77;58.89
65754;BME280;52488;47.502;18.940;2023-03-25T00:45:35;97186.13;;;14.78;58.91
65754;BME280;52488;47.502;18.940;2023-03-25T00:46:38;97193.06;;;14.79;59.01
65754;BME280;52488;47.502;18.940;2023-03-25T00:47:42;97193.22;;;14.83;58.94
65754;BME280;52488;47.502;18.940;2023-03-25T00:48:45;97187.81;;;14.87;59.11
65754;BME280;52488;47.502;18.940;2023-03-25T00:49:48;97189.66;;;14.81;59.43
65754;BME280;52488;47.502;18.940;2023-03-25T00:50:51;97202.06;;;14.79;59.54
65754;BME280;52488;47.502;18.940;2023-03-25T00:51:54;97200.56;;;14.76;59.59
65754;BME280;52488;47.502;18.940;2023-03-25T00:52:58;97202.56;;;14.74;59.92
65754;BME280;52488;47.502;18.940;2023-03-25T00:54:00;97198.28;;;14.71;60.26
65754;BME280;52488;47.502;18.940;2023-03-25T00:55:04;97199.31;;;14.79;60.42
65754;BME280;52488;47.502;18.940;2023-03-25T00:56:07;97198.91;;;14.69;60.71
65754;BME280;52488;47.502;18.940;2023-03-25T00:57:10;97189.13;;;14.66;60.82
65754;BME280;52488;47.502;18.940;2023-03-25T00:58:13;97199.16;;;14.75;60.83
65754;BME280;52488;47.502;18.940;2023-03-25T00:59:16;97196.09;;;14.67;61.09
65754;BME280;52488;47.502;18.940;2023-03-25T01:00:19;97202.25;;;14.66;61.28
65754;BME280;52488;47.502;18.940;2023-03-25T01:01:25;97199.56;;;14.68;61.37
65754;BME280;52488;47.502;18.940;2023-03-25T01:02:31;97197.81;;;14.59;61.68
65754;BME280;52488;47.502;18.940;2023-03-25T01:03:35;97193.78;;;14.62;61.86
65754;BME280;52488;47.502;18.940;2023-03-25T01:04:39;97188.75;;;14.56;62.26
65754;BME280;52488;47.502;18.940;2023-03-25T01:05:44;97196.25;;;14.53;62.43
65754;BME280;52488;47.502;18.940;2023-03-25T01:06:47;97193.34;;;14.49;62.44
65754;BME280;52488;47.502;18.940;2023-03-25T01:07:53;97196.00;;;14.47;62.71
65754;BME280;52488;47.502;18.940;2023-03-25T01:08:58;97187.06;;;14.49;63.08
65754;BME280;52488;47.502;18.940;2023-03-25T01:10:03;97195.19;;;14.45;63.36
65754;BME280;52488;47.502;18.940;2023-03-25T01:11:16;97195.03;;;14.41;63.53
65754;BME280;52488;47.502;18.940;2023-03-25T01:12:20;97193.34;;;14.49;63.62
65754;BME280;52488;47.502;18.940;2023-03-25T01:13:23;97188.50;;;14.50;63.92
65754;BME280;52488;47.502;18.940;2023-03-25T01:14:26;97202.13;;;14.46;64.13
65754;BME280;52488;47.502;18.940;2023-03-25T01:15:29;97196.16;;;14.34;64.56
65754;BME280;52488;47.502;18.940;2023-03-25T01:16:32;97198.81;;;14.32;64.83
65754;BME280;52488;47.502;18.940;2023-03-25T01:17:35;97198.66;;;14.27;65.30
65754;BME280;52488;47.502;18.940;2023-03-25T01:18:38;97197.22;;;14.26;65.44
65754;BME280;52488;47.502;18.940;2023-03-25T01:19:41;97194.38;;;14.24;65.65
65754;BME280;52488;47.502;18.940;2023-03-25T01:20:45;97195.81;;;14.25;65.87
65754;BME280;52488;47.502;18.940;2023-03-25T01:21:47;97206.06;;;14.23;66.11
65754;BME280;52488;47.502;18.940;2023-03-25T01:22:51;97201.09;;;14.19;66.62
65754;BME280;52488;47.502;18.940;2023-03-25T01:23:56;97196.66;;;14.12;67.18
65754;BME280;52488;47.502;18.940;2023-03-25T01:24:59;97195.87;;;14.10;67.16
65754;BME280;52488;47.502;18.940;2023-03-25T01:26:02;97209.59;;;14.08;67.88
65754;BME280;52488;47.502;18.940;2023-03-25T01:27:04;97206.78;;;14.06;68.37
65754;BME280;52488;47.502;18.940;2023-03-25T01:28:08;97204.37;;;13.98;69.14
65754;BME280;52488;47.502;18.940;2023-03-25T01:29:15;97203.41;;;13.91;69.54
65754;BME280;52488;47.502;18.940;2023-03-25T01:30:18;97217.94;;;13.92;69.88
65754;BME280;52488;47.502;18.940;2023-03-25T01:31:21;97205.53;;;13.93;70.11
65754;BME280;52488;47.502;18.940;2023-03-25T01:32:25;97205.94;;;13.85;70.59
65754;BME280;52488;47.502;18.940;2023-03-25T01:33:28;97224.47;;;13.83;71.03
65754;BME280;52488;47.502;18.940;2023-03-25T01:34:31;97212.28;;;13.72;71.34
65754;BME280;52488;47.502;18.940;2023-03-25T01:35:34;97215.03;;;13.72;71.96
65754;BME280;52488;47.502;18.940;2023-03-25T01:36:37;97219.22;;;13.73;72.38
65754;BME280;52488;47.502;18.940;2023-03-25T01:37:48;97214.94;;;13.70;72.45
65754;BME280;52488;47.502;18.940;2023-03-25T01:38:51;97207.75;;;13.63;72.99
65754;BME280;52488;47.502;18.940;2023-03-25T01:39:53;97201.53;;;13.62;73.07
65754;BME280;52488;47.502;18.940;2023-03-25T01:40:56;97212.56;;;13.62;73.26
65754;BME280;52488;47.502;18.940;2023-03-25T01:41:59;97213.81;;;13.59;73.60
65754;BME280;52488;47.502;18.940;2023-03-25T01:43:02;97215.41;;;13.48;73.93
65754;BME280;52488;47.502;18.940;2023-03-25T01:45:31;97215.59;;;13.53;74.61
65754;BME280;52488;47.502;18.940;2023-03-25T01:46:38;97211.25;;;13.47;74.62
65754;BME280;52488;47.502;18.940;2023-03-25T01:47:48;97216.69;;;13.45;74.83
65754;BME280;52488;47.502;18.940;2023-03-25T01:48:55;97220.22;;;13.32;75.50
65754;BME280;52488;47.502;18.940;2023-03-25T01:49:58;97219.87;;;13.24;75.84
65754;BME280;52488;47.502;18.940;2023-03-25T01:51:11;97217.13;;;13.24;75.94
65754;BME280;52488;47.502;18.940;2023-03-25T01:52:23;97208.84;;;13.24;76.15
65754;BME280;52488;47.502;18.940;2023-03-25T01:53:29;97228.16;;;13.24;76.39
65754;BME280;52488;47.502;18.940;2023-03-25T01:54:33;97226.63;;;13.21;76.61
65754;BME280;52488;47.502;18.940;2023-03-25T01:55:37;97242.28;;;13.16;76.77
65754;BME280;52488;47.502;18.940;2023-03-25T01:56:41;97233.91;;;13.14;76.92
65754;BME280;52488;47.502;18.940;2023-03-25T01:57:45;97227.31;;;13.06;77.23
65754;BME280;52488;47.502;18.940;2023-03-25T01:58:50;97223.47;;;12.97;77.60
65754;BME280;52488;47.502;18.940;2023-03-25T01:59:54;97230.34;;;12.96;77.99
65754;BME280;52488;47.502;18.940;2023-03-25T02:00:57;97225.88;;;12.89;78.49
65754;BME280;52488;47.502;18.940;2023-03-25T02:02:04;97226.31;;;12.83;78.76
65754;BME280;52488;47.502;18.940;2023-03-25T02:03:10;97224.97;;;12.84;78.73
65754;BME280;52488;47.502;18.940;2023-03-25T02:04:20;97237.34;;;12.83;78.64
65754;BME280;52488;47.502;18.940;2023-03-25T02:06:54;97245.50;;;12.81;79.24
65754;BME280;52488;47.502;18.940;2023-03-25T02:08:01;97235.53;;;12.74;79.65
65754;BME280;52488;47.502;18.940;2023-03-25T02:09:05;97236.06;;;12.71;80.13
65754;BME280;52488;47.502;18.940;2023-03-25T02:10:11;97232.94;;;12.62;80.60
65754;BME280;52488;47.502;18.940;2023-03-25T02:11:14;97223.75;;;12.58;81.25
65754;BME280;52488;47.502;18.940;2023-03-25T02:12:17;97226.84;;;12.50;81.96
65754;BME280;52488;47.502;18.940;2023-03-25T02:13:20;97236.84;;;12.43;82.53
65754;BME280;52488;47.502;18.940;2023-03-25T02:14:28;97228.59;;;12.43;82.83
65754;BME280;52488;47.502;18.940;2023-03-25T02:15:45;97222.72;;;12.35;83.22
65754;BME280;52488;47.502;18.940;2023-03-25T02:17:23;97220.78;;;12.24;83.88
65754;BME280;52488;47.502;18.940;2023-03-25T02:18:55;97219.59;;;12.27;84.43
65754;BME280;52488;47.502;18.940;2023-03-25T02:20:34;97219.37;;;12.23;85.09
65754;BME280;52488;47.502;18.940;2023-03-25T02:22:11;97218.87;;;12.13;85.86
65754;BME280;52488;47.502;18.940;2023-03-25T02:27:36;97223.22;;;11.88;87.67
65754;BME280;52488;47.502;18.940;2023-03-25T02:28:39;97211.69;;;11.92;88.08
65754;BME280;52488;47.502;18.940;2023-03-25T02:32:57;97213.81;;;11.80;89.23
65754;BME280;52488;47.502;18.940;2023-03-25T02:37:51;97206.69;;;11.61;90.33
65754;BME280;52488;47.502;18.940;2023-03-25T02:39:01;97208.12;;;11.62;90.52
65754;BME280;52488;47.502;18.940;2023-03-25T02:40:06;97207.41;;;11.61;90.54
65754;BME280;52488;47.502;18.940;2023-03-25T02:41:19;97203.41;;;11.64;90.33
65754;BME280;52488;47.502;18.940;2023-03-25T02:43:43;97204.53;;;11.59;90.48
65754;BME280;52488;47.502;18.940;2023-03-25T02:45:51;97200.69;;;11.51;90.43
65754;BME280;52488;47.502;18.940;2023-03-25T02:46:59;97197.53;;;11.56;90.06
65754;BME280;52488;47.502;18.940;2023-03-25T02:48:05;97202.81;;;11.52;90.00
65754;BME280;52488;47.502;18.940;2023-03-25T02:49:10;97203.84;;;11.45;90.17
65754;BME280;52488;47.502;18.940;2023-03-25T02:50:25;97201.09;;;11.45;90.21
65754;BME280;52488;47.502;18.940;2023-03-25T02:51:35;97208.41;;;11.54;89.56
65754;BME280;52488;47.502;18.940;2023-03-25T02:52:42;97200.28;;;11.56;89.04
65754;BME280;52488;47.502;18.940;2023-03-25T02:53:46;97200.47;;;11.47;89.49
65754;BME280;52488;47.502;18.940;2023-03-25T02:54:52;97207.59;;;11.52;89.62
65754;BME280;52488;47.502;18.940;2023-03-25T02:56:00;97200.88;;;11.55;89.27
65754;BME280;52488;47.502;18.940;2023-03-25T02:57:04;97195.25;;;11.53;89.29
65754;BME280;52488;47.502;18.940;2023-03-25T02:58:10;97191.00;;;11.50;89.09
65754;BME280;52488;47.502;18.940;2023-03-25T02:59:15;97203.22;;;11.47;88.85
65754;BME280;52488;47.502;18.940;2023-03-25T03:00:22;97203.00;;;11.43;89.21
65754;BME280;52488;47.502;18.940;2023-03-25T03:01:25;97206.97;;;11.40;89.65
65754;BME280;52488;47.502;18.940;2023-03-25T03:02:28;97204.22;;;11.40;89.66
65754;BME280;52488;47.502;18.940;2023-03-25T03:03:34;97216.84;;;11.31;90.12
65754;BME280;52488;47.502;18.940;2023-03-25T03:04:47;97206.06;;;11.35;90.29
65754;BME280;52488;47.502;18.940;2023-03-25T03:05:51;97214.09;;;11.31;90.31
65754;BME280;52488;47.502;18.940;2023-03-25T03:06:55;97212.06;;;11.31;90.27
65754;BME280;52488;47.502;18.940;2023-03-25T03:08:16;97212.56;;;11.28;90.35
65754;BME280;52488;47.502;18.940;2023-03-25T03:09:29;97212.75;;;11.32;90.38
65754;BME280;52488;47.502;18.940;2023-03-25T03:14:36;97220.38;;;11.20;90.64
65754;BME280;52488;47.502;18.940;2023-03-25T03:15:45;97209.50;;;11.22;90.66
65754;BME280;52488;47.502;18.940;2023-03-25T03:23:20;97218.72;;;11.01;93.25
65754;BME280;52488;47.502;18.940;2023-03-25T03:24:36;97219.13;;;10.95;93.89
65754;BME280;52488;47.502;18.940;2023-03-25T03:25:46;97214.59;;;10.88;94.22
65754;BME280;52488;47.502;18.940;2023-03-25T03:29:10;97220.09;;;10.88;94.84
65754;BME280;52488;47.502;18.940;2023-03-25T03:30:24;97223.47;;;10.87;95.25
65754;BME280;52488;47.502;18.940;2023-03-25T03:31:32;97216.31;;;10.81;95.41
65754;BME280;52488;47.502;18.940;2023-03-25T03:34:47;97214.03;;;10.64;96.92
65754;BME280;52488;47.502;18.940;2023-03-25T03:35:39;97213.22;;;10.62;97.36
65754;BME280;52488;47.502;18.940;2023-03-25T03:36:45;97210.56;;;10.64;97.62
65754;BME280;52488;47.502;18.940;2023-03-25T03:37:50;97218.19;;;10.65;97.55
65754;BME280;52488;47.502;18.940;2023-03-25T03:39:00;97216.91;;;10.66;97.33
65754;BME280;52488;47.502;18.940;2023-03-25T03:40:09;97218.00;;;10.61;97.42
65754;BME280;52488;47.502;18.940;2023-03-25T03:41:17;97215.03;;;10.57;97.45
65754;BME280;52488;47.502;18.940;2023-03-25T03:42:27;97221.63;;;10.52;98.00
65754;BME280;52488;47.502;18.940;2023-03-25T03:43:34;97223.03;;;10.53;98.23
65754;BME280;52488;47.502;18.940;2023-03-25T03:44:41;97221.50;;;10.50;98.14
65754;BME280;52488;47.502;18.940;2023-03-25T03:45:46;97220.06;;;10.49;98.58
65754;BME280;52488;47.502;18.940;2023-03-25T03:46:53;97224.03;;;10.46;98.75
65754;BME280;52488;47.502;18.940;2023-03-25T03:48:01;97221.28;;;10.46;99.02
65754;BME280;52488;47.502;18.940;2023-03-25T03:49:09;97223.75;;;10.53;98.66
65754;BME280;52488;47.502;18.940;2023-03-25T03:50:15;97225.44;;;10.47;98.92
65754;BME280;52488;47.502;18.940;2023-03-25T03:51:40;97230.94;;;10.47;99.21
65754;BME280;52488;47.502;18.940;2023-03-25T03:52:49;97227.25;;;10.42;99.29
65754;BME280;52488;47.502;18.940;2023-03-25T03:54:57;97234.19;;;10.43;99.82
65754;BME280;52488;47.502;18.940;2023-03-25T03:57:48;97238.25;;;10.42;99.98
65754;BME280;52488;47.502;18.940;2023-03-25T03:58:32;97242.03;;;10.49;100.00
65754;BME280;52488;47.502;18.940;2023-03-25T04:00:52;97248.03;;;10.45;100.00
65754;BME280;52488;47.502;18.940;2023-03-25T04:01:59;97251.38;;;10.44;100.00
65754;BME280;52488;47.502;18.940;2023-03-25T04:03:14;97247.69;;;10.39;100.00
65754;BME280;52488;47.502;18.940;2023-03-25T04:04:19;97247.09;;;10.41;100.00
65754;BME280;52488;47.502;18.940;2023-03-25T04:05:23;97248.63;;;10.44;100.00
65754;BME280;52488;47.502;18.940;2023-03-25T04:08:00;97249.00;;;10.38;100.00
65754;BME280;52488;47.502;18.940;2023-03-25T04:09:09;97253.28;;;10.41;100.00
65754;BME280;52488;47.502;18.940;2023-03-25T04:10:13;97253.28;;;10.41;100.00
65754;BME280;52488;47.502;18.940;2023-03-25T04:11:21;97248.28;;;10.38;100.00
65754;BME280;52488;47.502;18.940;2023-03-25T04:12:33;97249.72;;;10.39;100.00
65754;BME280;52488;47.502;18.940;2023-03-25T04:13:38;97253.66;;;10.36;100.00
65754;BME280;52488;47.502;18.940;2023-03-25T04:14:43;97253.41;;;10.43;100.00
65754;BME280;52488;47.502;18.940;2023-03-25T04:15:46;97252.47;;;10.39;100.00
65754;BME280;52488;47.502;18.940;2023-03-25T04:16:49;97257.34;;;10.40;100.00
65754;BME280;52488;47.502;18.940;2023-03-25T04:17:54;97248.13;;;10.47;100.00
65754;BME280;52488;47.502;18.940;2023-03-25T04:18:57;97254.47;;;10.38;100.00
65754;BME280;52488;47.502;18.940;2023-03-25T04:20:00;97259.75;;;10.34;100.00
65754;BME280;52488;47.502;18.940;2023-03-25T04:21:03;97252.62;;;10.29;100.00
65754;BME280;52488;47.502;18.940;2023-03-25T04:22:06;97251.91;;;10.28;100.00
65754;BME280;52488;47.502;18.940;2023-03-25T04:23:09;97263.00;;;10.30;100.00
65754;BME280;52488;47.502;18.940;2023-03-25T04:24:17;97261.56;;;10.29;100.00
65754;BME280;52488;47.502;18.940;2023-03-25T04:25:21;97264.41;;;10.31;100.00
65754;BME280;52488;47.502;18.940;2023-03-25T04:26:29;97266.06;;;10.37;100.00
65754;BME280;52488;47.502;18.940;2023-03-25T04:27:35;97265.25;;;10.34;100.00
65754;BME280;52488;47.502;18.940;2023-03-25T04:28:39;97267.41;;;10.36;100.00
65754;BME280;52488;47.502;18.940;2023-03-25T04:29:45;97265.25;;;10.34;100.00
65754;BME280;52488;47.502;18.940;2023-03-25T04:30:49;97264.75;;;10.38;100.00
65754;BME280;52488;47.502;18.940;2023-03-25T04:31:57;97264.50;;;10.45;100.00
65754;BME280;52488;47.502;18.940;2023-03-25T04:33:00;97266.31;;;10.41;100.00
65754;BME280;52488;47.502;18.940;2023-03-25T04:34:03;97270.97;;;10.38;100.00
65754;BME280;52488;47.502;18.940;2023-03-25T04:35:06;97270.13;;;10.36;100.00
65754;BME280;52488;47.502;18.940;2023-03-25T04:36:11;97265.25;;;10.34;100.00
65754;BME280;52488;47.502;18.940;2023-03-25T04:37:14;97275.88;;;10.40;100.00
65754;BME280;52488;47.502;18.940;2023-03-25T04:38:17;97269.19;;;10.31;100.00
65754;BME280;52488;47.502;18.940;2023-03-25T04:39:20;97281.59;;;10.32;100.00
65754;BME280;52488;47.502;18.940;2023-03-25T04:40:26;97269.53;;;10.37;100.00
65754;BME280;52488;47.502;18.940;2023-03-25T04:41:29;97274.22;;;10.35;100.00
65754;BME280;52488;47.502;18.940;2023-03-25T04:42:33;97269.81;;;10.29;100.00
65754;BME280;52488;47.502;18.940;2023-03-25T04:43:38;97282.81;;;10.29;100.00
65754;BME280;52488;47.502;18.940;2023-03-25T04:44:41;97274.81;;;10.33;100.00
65754;BME280;52488;47.502;18.940;2023-03-25T04:45:46;97282.44;;;10.35;100.00
65754;BME280;52488;47.502;18.940;2023-03-25T04:46:56;97275.88;;;10.40;99.71
65754;BME280;52488;47.502;18.940;2023-03-25T04:47:59;97282.78;;;10.41;99.24
65754;BME280;52488;47.502;18.940;2023-03-25T04:49:03;97282.16;;;10.42;98.92
65754;BME280;52488;47.502;18.940;2023-03-25T04:50:08;97279.81;;;10.37;98.88
65754;BME280;52488;47.502;18.940;2023-03-25T04:51:12;97276.34;;;10.36;99.14
65754;BME280;52488;47.502;18.940;2023-03-25T04:52:16;97290.19;;;10.38;98.49
65754;BME280;52488;47.502;18.940;2023-03-25T04:53:19;97293.53;;;10.37;98.69
65754;BME280;52488;47.502;18.940;2023-03-25T04:54:21;97292.34;;;10.40;98.32
65754;BME280;52488;47.502;18.940;2023-03-25T04:55:25;97287.22;;;10.34;98.38
65754;BME280;52488;47.502;18.940;2023-03-25T04:56:27;97289.25;;;10.34;98.71
65754;BME280;52488;47.502;18.940;2023-03-25T04:57:30;97290.69;;;10.35;98.81
65754;BME280;52488;47.502;18.940;2023-03-25T04:58:34;97291.88;;;10.31;98.78
65754;BME280;52488;47.502;18.940;2023-03-25T04:59:38;97295.56;;;10.36;98.83
65754;BME280;52488;47.502;18.940;2023-03-25T05:00:44;97295.31;;;10.32;98.73
65754;BME280;52488;47.502;18.940;2023-03-25T05:01:47;97293.78;;;10.29;98.99
65754;BME280;52488;47.502;18.940;2023-03-25T05:02:51;97295.13;;;10.28;99.18
65754;BME280;52488;47.502;18.940;2023-03-25T05:03:56;97295.84;;;10.28;99.28
65754;BME280;52488;47.502;18.940;2023-03-25T05:05:06;97293.19;;;10.30;98.99
65754;BME280;52488;47.502;18.940;2023-03-25T05:06:09;97294.41;;;10.27;99.01
65754;BME280;52488;47.502;18.940;2023-03-25T05:07:12;97299.03;;;10.25;99.24
65754;BME280;52488;47.502;18.940;2023-03-25T05:08:18;97294.28;;;10.25;99.35
65754;BME280;52488;47.502;18.940;2023-03-25T05:09:23;97297.25;;;10.29;98.80
65754;BME280;52488;47.502;18.940;2023-03-25T05:10:26;97298.44;;;10.26;99.01
65754;BME280;52488;47.502;18.940;2023-03-25T05:11:32;97304.06;;;10.28;99.16
65754;BME280;52488;47.502;18.940;2023-03-25T05:12:35;97302.50;;;10.25;98.98
65754;BME280;52488;47.502;18.940;2023-03-25T05:13:37;97296.91;;;10.23;99.13
65754;BME280;52488;47.502;18.940;2023-03-25T05:14:40;97304.06;;;10.28;99.14
65754;BME280;52488;47.502;18.940;2023-03-25T05:15:43;97309.31;;;10.24;99.24
65754;BME280;52488;47.502;18.940;2023-03-25T05:16:46;97310.63;;;10.23;99.25
65754;BME280;52488;47.502;18.940;2023-03-25T05:17:50;97309.06;;;10.20;99.31
65754;BME280;52488;47.502;18.940;2023-03-25T05:18:52;97305.72;;;10.22;99.21
65754;BME280;52488;47.502;18.940;2023-03-25T05:19:55;97304.88;;;10.19;99.22
65754;BME280;52488;47.502;18.940;2023-03-25T05:20:58;97317.41;;;10.22;99.35
65754;BME280;52488;47.502;18.940;2023-03-25T05:22:04;97316.56;;;10.20;99.46
65754;BME280;52488;47.502;18.940;2023-03-25T05:23:07;97320.16;;;10.22;99.39
65754;BME280;52488;47.502;18.940;2023-03-25T05:24:17;97312.88;;;10.27;99.35
65754;BME280;52488;47.502;18.940;2023-03-25T05:25:20;97316.84;;;10.24;99.15
65754;BME280;52488;47.502;18.940;2023-03-25T05:26:24;97320.03;;;10.20;99.25
65754;BME280;52488;47.502;18.940;2023-03-25T05:27:27;97317.28;;;10.20;99.18
65754;BME280;52488;47.502;18.940;2023-03-25T05:28:33;97314.44;;;10.18;99.23
65754;BME280;52488;47.502;18.940;2023-03-25T05:29:37;97315.75;;;10.17;99.21
65754;BME280;52488;47.502;18.940;2023-03-25T05:30:42;97319.69;;;10.14;99.24
65754;BME280;52488;47.502;18.940;2023-03-25T05:31:47;97316.94;;;10.14;99.42
65754;BME280;52488;47.502;18.940;2023-03-25T05:32:50;97313.13;;;10.19;99.04
65754;BME280;52488;47.502;18.940;2023-03-25T05:33:58;97313.00;;;10.17;99.20
65754;BME280;52488;47.502;18.940;2023-03-25T05:35:01;97321.25;;;10.17;99.36
65754;BME280;52488;47.502;18.940;2023-03-25T05:36:04;97324.00;;;10.17;99.24
65754;BME280;52488;47.502;18.940;2023-03-25T05:37:07;97319.22;;;10.18;98.88
65754;BME280;52488;47.502;18.940;2023-03-25T05:38:10;97320.53;;;10.17;98.72
65754;BME280;52488;47.502;18.940;2023-03-25T05:39:20;97318.25;;;10.13;98.50
65754;BME280;52488;47.502;18.940;2023-03-25T05:40:22;97318.25;;;10.13;98.82
65754;BME280;52488;47.502;18.940;2023-03-25T05:41:27;97316.13;;;10.23;98.23
65754;BME280;52488;47.502;18.940;2023-03-25T05:42:40;97314.44;;;10.18;98.10
65754;BME280;52488;47.502;18.940;2023-03-25T05:43:48;97316.94;;;10.14;98.40
65754;BME280;52488;47.502;18.940;2023-03-25T05:44:52;97314.09;;;10.12;98.46
65754;BME280;52488;47.502;18.940;2023-03-25T05:45:55;97314.69;;;10.11;98.71
65754;BME280;52488;47.502;18.940;2023-03-25T05:46:58;97317.31;;;10.09;98.93
65754;BME280;52488;47.502;18.940;2023-03-25T05:48:03;97322.31;;;10.12;98.78
65754;BME280;52488;47.502;18.940;2023-03-25T05:49:06;97314.91;;;10.26;98.08
65754;BME280;52488;47.502;18.940;2023-03-25T05:50:09;97315.25;;;10.21;98.00
65754;BME280;52488;47.502;18.940;2023-03-25T05:51:15;97321.09;;;10.15;98.38
65754;BME280;52488;47.502;18.940;2023-03-25T05:52:19;97313.22;;;10.21;98.10
65754;BME280;52488;47.502;18.940;2023-03-25T05:53:22;97322.31;;;10.12;98.27
65754;BME280;52488;47.502;18.940;2023-03-25T05:54:24;97325.41;;;10.18;98.34
65754;BME280;52488;47.502;18.940;2023-03-25T05:55:27;97318.72;;;10.21;97.96
65754;BME280;52488;47.502;18.940;2023-03-25T05:56:30;97318.25;;;10.13;97.85
65754;BME280;52488;47.502;18.940;2023-03-25T05:57:33;97320.53;;;10.05;98.10
65754;BME280;52488;47.502;18.940;2023-03-25T05:58:36;97321.97;;;10.06;98.27
65754;BME280;52488;47.502;18.940;2023-03-25T05:59:39;97325.66;;;9.99;98.31
65754;BME280;52488;47.502;18.940;2023-03-25T06:00:42;97325.78;;;10.01;98.46
65754;BME280;52488;47.502;18.940;2023-03-25T06:01:45;97320.66;;;10.07;98.00
65754;BME280;52488;47.502;18.940;2023-03-25T06:02:48;97324.59;;;10.04;97.89
65754;BME280;52488;47.502;18.940;2023-03-25T06:03:51;97326.63;;;10.03;97.67
65754;BME280;52488;47.502;18.940;2023-03-25T06:04:54;97325.66;;;9.99;97.86
65754;BME280;52488;47.502;18.940;2023-03-25T06:05:57;97327.09;;;10.00;97.93
65754;BME280;52488;47.502;18.940;2023-03-25T06:06:59;97329.97;;;10.02;97.85
65754;BME280;52488;47.502;18.940;2023-03-25T06:08:02;97333.06;;;10.08;97.48
65754;BME280;52488;47.502;18.940;2023-03-25T06:09:05;97338.19;;;10.02;97.73
65754;BME280;52488;47.502;18.940;2023-03-25T06:10:09;97339.50;;;10.01;97.96
65754;BME280;52488;47.502;18.940;2023-03-25T06:11:12;97329.72;;;9.98;98.32
65754;BME280;52488;47.502;18.940;2023-03-25T06:12:18;97349.78;;;10.00;98.28
65754;BME280;52488;47.502;18.940;2023-03-25T06:13:21;97332.81;;;10.04;98.27
65754;BME280;52488;47.502;18.940;2023-03-25T06:14:26;97340.81;;;10.00;97.83
65754;BME280;52488;47.502;18.940;2023-03-25T06:15:29;97335.19;;;9.98;97.73
65754;BME280;52488;47.502;18.940;2023-03-25T06:16:35;97333.06;;;9.96;97.52
65754;BME280;52488;47.502;18.940;2023-03-25T06:17:37;97331.63;;;9.95;97.41